createdAt,value
2018-07-09T00:03:34.887Z,13.2
2018-07-09T00:13:34.176Z,13.1
2018-07-09T00:23:33.365Z,13.1
2018-07-09T00:33:32.598Z,12.5
2018-07-09T00:43:31.837Z,13
2018-07-09T00:53:31.072Z,13
2018-07-09T01:03:30.307Z,12.4
2018-07-09T01:13:29.549Z,12.9
2018-07-09T01:23:28.782Z,12.9
2018-07-09T01:33:28.020Z,13
2018-07-09T01:43:27.257Z,12.9
2018-07-09T01:53:26.491Z,12.5
2018-07-09T02:03:25.730Z,13.1
2018-07-09T02:13:24.964Z,13.1
2018-07-09T02:23:24.199Z,12.8
2018-07-09T02:33:23.437Z,13
2018-07-09T02:43:22.673Z,12.8
2018-07-09T02:53:21.908Z,12.6
2018-07-09T03:03:21.145Z,13.1
2018-07-09T03:13:20.432Z,13.1
2018-07-09T03:23:19.617Z,13
2018-07-09T03:33:18.862Z,12.8
2018-07-09T03:43:18.138Z,12.6
2018-07-09T03:53:17.330Z,12.9
2018-07-09T04:03:16.557Z,12.6
2018-07-09T04:13:15.791Z,13.1
2018-07-09T04:23:15.036Z,12.8
2018-07-09T04:33:14.271Z,13.1
2018-07-09T04:43:13.567Z,12.4
2018-07-09T04:53:12.734Z,13.1
2018-07-09T05:03:11.967Z,12.7
2018-07-09T05:13:11.201Z,13.2
2018-07-09T05:23:10.484Z,12.7
2018-07-09T05:33:09.715Z,13
2018-07-09T05:43:08.910Z,12.5
2018-07-09T05:53:08.138Z,13.5
2018-07-09T06:03:07.378Z,14.1
2018-07-09T06:13:06.608Z,14.1
2018-07-09T06:23:05.845Z,13
2018-07-09T06:33:05.079Z,13.4
2018-07-09T06:43:04.326Z,14
2018-07-09T06:53:03.552Z,14
2018-07-09T07:03:02.785Z,14.1
2018-07-09T07:13:02.019Z,14
2018-07-09T07:23:01.255Z,14.5
2018-07-09T07:33:00.492Z,13.9
2018-07-09T07:42:59.721Z,13.5
2018-07-09T07:52:58.956Z,13.4
2018-07-09T08:02:58.202Z,13.4
2018-07-09T08:13:13.741Z,13.8
2018-07-09T08:22:56.663Z,13.8
2018-07-09T08:32:55.902Z,13.9
2018-07-09T08:42:55.132Z,14.3
2018-07-09T08:52:54.367Z,14.4
2018-07-09T09:02:53.600Z,14.6
2018-07-09T09:12:52.833Z,13.8
2018-07-09T09:22:52.070Z,14.3
2018-07-09T09:32:51.303Z,13.8
2018-07-09T09:42:50.539Z,13.8
2018-07-09T09:52:49.773Z,14.3
2018-07-09T10:02:49.007Z,14.6
2018-07-09T10:12:48.241Z,14.3
2018-07-09T10:22:47.563Z,14.5
2018-07-09T10:32:46.715Z,14.1
2018-07-09T10:42:45.949Z,14
2018-07-09T10:52:45.178Z,14.3
2018-07-09T11:02:44.415Z,14
2018-07-09T11:12:43.648Z,14
2018-07-09T11:22:42.884Z,14.4
2018-07-09T11:32:42.117Z,14.3
2018-07-09T11:42:41.351Z,14.5
2018-07-09T11:52:40.586Z,14.6
2018-07-09T12:02:39.832Z,14
2018-07-09T12:12:39.056Z,14.7
2018-07-09T12:22:38.293Z,14.5
2018-07-09T12:32:37.525Z,14.3
2018-07-09T12:42:36.766Z,13.9
2018-07-09T12:52:35.995Z,13.9
2018-07-09T13:02:35.230Z,13.3
2018-07-09T13:12:34.514Z,12.6
2018-07-09T13:22:33.698Z,14.1
2018-07-09T13:32:32.932Z,14.3
2018-07-09T13:42:32.172Z,13.8
2018-07-09T13:52:31.403Z,13.7
2018-07-09T14:02:30.645Z,14.3
2018-07-09T14:12:29.876Z,14.2
2018-07-09T14:22:29.109Z,14
2018-07-09T14:32:28.344Z,14.3
2018-07-09T14:42:27.576Z,13.9
2018-07-09T14:52:26.812Z,13.4
2018-07-09T15:02:26.056Z,12.8
2018-07-09T15:12:25.282Z,13
2018-07-09T15:22:24.517Z,12.6
2018-07-09T15:32:23.749Z,12.8
2018-07-09T15:42:22.986Z,13.1
2018-07-09T15:52:22.220Z,12.8
2018-07-09T16:02:21.455Z,12.8
2018-07-09T16:12:20.694Z,12.6
2018-07-09T16:22:19.947Z,13.2
2018-07-09T16:32:19.171Z,13
2018-07-09T16:42:18.406Z,13.1
2018-07-09T16:52:17.636Z,12.6
2018-07-09T17:02:16.876Z,13
2018-07-09T17:12:16.161Z,12.9
2018-07-09T17:22:15.351Z,12.6
2018-07-09T17:32:14.584Z,12.7
2018-07-09T17:42:13.830Z,12.6
2018-07-09T17:52:13.059Z,12.6
2018-07-09T18:02:12.295Z,13
2018-07-09T18:12:11.530Z,12.9
2018-07-09T18:22:10.773Z,13.1
2018-07-09T18:32:10.055Z,12.6
2018-07-09T18:42:09.240Z,12.5
2018-07-09T18:52:08.490Z,12.5
2018-07-09T19:02:07.714Z,12.9
2018-07-09T19:12:06.999Z,13
2018-07-09T19:22:06.200Z,13
2018-07-09T19:32:05.512Z,12.9
2018-07-09T19:42:04.666Z,13.1
2018-07-09T19:52:03.911Z,13.1
2018-07-09T20:02:03.140Z,12.5
2018-07-09T20:12:02.381Z,12.5
2018-07-09T20:22:01.617Z,12.9
2018-07-09T20:32:00.854Z,12.8
2018-07-09T20:42:00.095Z,12.7
2018-07-09T20:51:59.326Z,13
2018-07-09T21:01:58.567Z,12.9
2018-07-09T21:11:57.798Z,13.2
2018-07-09T21:21:57.046Z,13.1
2018-07-09T21:31:56.274Z,12.7
2018-07-09T21:41:55.561Z,13
2018-07-09T21:51:54.744Z,13.1
2018-07-09T22:01:53.982Z,12.5
2018-07-09T22:11:53.217Z,12.6
2018-07-09T22:21:52.455Z,13
2018-07-09T22:31:51.692Z,13.2
2018-07-09T22:41:50.934Z,12.5
2018-07-09T22:51:50.169Z,13.2
2018-07-09T23:01:49.399Z,13.2
2018-07-09T23:11:48.644Z,12.6
2018-07-09T23:21:47.875Z,12.9
2018-07-09T23:31:47.111Z,13.2
2018-07-09T23:41:46.347Z,12.6
2018-07-09T23:51:45.587Z,12.8
